sensor_id;sensor_type;location;lat;lon;timestamp;temperature;humidity
4651;DHT22;2338;49.602;8.722;2022-12-29T00:02:37;12.00;99.90
4651;DHT22;2338;49.602;8.722;2022-12-29T00:05:23;12.10;99.90
4651;DHT22;2338;49.602;8.722;2022-12-29T00:08:09;12.00;99.90
4651;DHT22;2338;49.602;8.722;2022-12-29T00:10:55;12.00;99.90
4651;DHT22;2338;49.602;8.722;2022-12-29T00:13:40;12.10;99.90
4651;DHT22;2338;49.602;8.722;2022-12-29T00:16:45;12.10;99.90
4651;DHT22;2338;49.602;8.722;2022-12-29T00:19:32;12.00;99.90
4651;DHT22;2338;49.602;8.722;2022-12-29T00:22:35;12.00;99.90
4651;DHT22;2338;49.602;8.722;2022-12-29T00:25:40;12.00;99.90
4651;DHT22;2338;49.602;8.722;2022-12-29T00:28:43;12.00;99.90
4651;DHT22;2338;49.602;8.722;2022-12-29T00:31:46;12.00;99.90
4651;DHT22;2338;49.602;8.722;2022-12-29T00:34:51;12.00;99.90
4651;DHT22;2338;49.602;8.722;2022-12-29T00:37:57;11.90;99.90
4651;DHT22;2338;49.602;8.722;2022-12-29T00:41:01;12.00;99.90
4651;DHT22;2338;49.602;8.722;2022-12-29T00:44:05;12.00;99.90
4651;DHT22;2338;49.602;8.722;2022-12-29T00:46:51;11.90;99.90
4651;DHT22;2338;49.602;8.722;2022-12-29T00:49:37;11.90;99.90
4651;DHT22;2338;49.602;8.722;2022-12-29T00:52:23;11.90;99.90
4651;DHT22;2338;49.602;8.722;2022-12-29T00:55:08;11.90;99.90
4651;DHT22;2338;49.602;8.722;2022-12-29T00:57:54;11.80;99.90
4651;DHT22;2338;49.602;8.722;2022-12-29T01:00:40;11.80;99.90
4651;DHT22;2338;49.602;8.722;2022-12-29T01:03:26;11.80;99.90
4651;DHT22;2338;49.602;8.722;2022-12-29T01:06:11;11.70;99.90
4651;DHT22;2338;49.602;8.722;2022-12-29T01:08:59;11.70;99.90
4651;DHT22;2338;49.602;8.722;2022-12-29T01:12:02;11.70;99.90
4651;DHT22;2338;49.602;8.722;2022-12-29T01:14:48;11.70;99.90
4651;DHT22;2338;49.602;8.722;2022-12-29T01:17:34;11.70;99.90
4651;DHT22;2338;49.602;8.722;2022-12-29T01:20:20;11.70;99.90
4651;DHT22;2338;49.602;8.722;2022-12-29T01:23:06;11.70;99.90
4651;DHT22;2338;49.602;8.722;2022-12-29T01:25:53;11.70;99.90
4651;DHT22;2338;49.602;8.722;2022-12-29T01:28:39;11.70;99.90
4651;DHT22;2338;49.602;8.722;2022-12-29T01:31:25;11.70;99.90
4651;DHT22;2338;49.602;8.722;2022-12-29T01:34:11;11.70;99.90
4651;DHT22;2338;49.602;8.722;2022-12-29T01:36:57;11.70;99.90
4651;DHT22;2338;49.602;8.722;2022-12-29T01:39:42;11.70;99.90
4651;DHT22;2338;49.602;8.722;2022-12-29T01:42:29;11.70;99.90
4651;DHT22;2338;49.602;8.722;2022-12-29T01:45:16;11.80;99.90
4651;DHT22;2338;49.602;8.722;2022-12-29T01:48:04;11.80;99.90
4651;DHT22;2338;49.602;8.722;2022-12-29T01:50:52;11.80;99.90
4651;DHT22;2338;49.602;8.722;2022-12-29T01:53:38;11.80;99.90
4651;DHT22;2338;49.602;8.722;2022-12-29T01:56:24;11.90;99.90
4651;DHT22;2338;49.602;8.722;2022-12-29T01:59:15;11.80;99.90
4651;DHT22;2338;49.602;8.722;2022-12-29T02:02:02;11.80;99.90
4651;DHT22;2338;49.602;8.722;2022-12-29T02:04:48;11.80;99.90
4651;DHT22;2338;49.602;8.722;2022-12-29T02:07:34;11.80;99.90
4651;DHT22;2338;49.602;8.722;2022-12-29T02:10:21;11.80;99.90
4651;DHT22;2338;49.602;8.722;2022-12-29T02:13:07;11.80;99.90
4651;DHT22;2338;49.602;8.722;2022-12-29T02:16:00;11.80;99.90
4651;DHT22;2338;49.602;8.722;2022-12-29T02:18:56;11.80;99.90
4651;DHT22;2338;49.602;8.722;2022-12-29T02:21:54;11.70;99.90
4651;DHT22;2338;49.602;8.722;2022-12-29T02:25:04;11.70;99.90
4651;DHT22;2338;49.602;8.722;2022-12-29T02:28:33;11.70;99.90
4651;DHT22;2338;49.602;8.722;2022-12-29T02:31:25;11.70;99.90
4651;DHT22;2338;49.602;8.722;2022-12-29T02:34:23;11.70;99.90
4651;DHT22;2338;49.602;8.722;2022-12-29T02:37:19;11.70;99.90
4651;DHT22;2338;49.602;8.722;2022-12-29T02:40:17;11.70;99.90
4651;DHT22;2338;49.602;8.722;2022-12-29T02:43:10;11.70;99.90
4651;DHT22;2338;49.602;8.722;2022-12-29T02:46:03;11.80;99.90
4651;DHT22;2338;49.602;8.722;2022-12-29T02:48:58;11.80;99.90
4651;DHT22;2338;49.602;8.722;2022-12-29T02:51:51;11.70;99.90
4651;DHT22;2338;49.602;8.722;2022-12-29T02:54:39;11.70;99.90
4651;DHT22;2338;49.602;8.722;2022-12-29T02:57:32;11.70;99.90
4651;DHT22;2338;49.602;8.722;2022-12-29T03:00:18;11.60;99.90
4651;DHT22;2338;49.602;8.722;2022-12-29T03:03:15;11.60;99.90
4651;DHT22;2338;49.602;8.722;2022-12-29T03:06:15;11.70;99.90
4651;DHT22;2338;49.602;8.722;2022-12-29T03:09:13;11.70;99.90
4651;DHT22;2338;49.602;8.722;2022-12-29T03:12:11;11.60;99.90
4651;DHT22;2338;49.602;8.722;2022-12-29T03:15:04;11.70;99.90
4651;DHT22;2338;49.602;8.722;2022-12-29T03:18:18;11.60;99.90
4651;DHT22;2338;49.602;8.722;2022-12-29T03:21:11;11.70;99.90
4651;DHT22;2338;49.602;8.722;2022-12-29T03:23:57;11.70;99.90
4651;DHT22;2338;49.602;8.722;2022-12-29T03:26:44;11.70;99.90
4651;DHT22;2338;49.602;8.722;2022-12-29T03:29:33;11.70;99.90
4651;DHT22;2338;49.602;8.722;2022-12-29T03:32:23;11.80;99.90
4651;DHT22;2338;49.602;8.722;2022-12-29T03:35:12;11.80;99.90
4651;DHT22;2338;49.602;8.722;2022-12-29T03:38:07;11.80;99.90
4651;DHT22;2338;49.602;8.722;2022-12-29T03:40:57;11.80;99.90
4651;DHT22;2338;49.602;8.722;2022-12-29T03:43:43;11.80;99.90
4651;DHT22;2338;49.602;8.722;2022-12-29T03:46:29;11.80;99.90
4651;DHT22;2338;49.602;8.722;2022-12-29T03:49:15;11.90;99.90
4651;DHT22;2338;49.602;8.722;2022-12-29T03:52:00;11.90;99.90
4651;DHT22;2338;49.602;8.722;2022-12-29T03:54:47;11.90;99.90
4651;DHT22;2338;49.602;8.722;2022-12-29T03:57:33;11.90;99.90
4651;DHT22;2338;49.602;8.722;2022-12-29T04:00:19;11.90;99.90
4651;DHT22;2338;49.602;8.722;2022-12-29T04:03:05;11.90;99.90
4651;DHT22;2338;49.602;8.722;2022-12-29T04:05:50;12.00;99.90
4651;DHT22;2338;49.602;8.722;2022-12-29T04:08:36;12.00;99.90
4651;DHT22;2338;49.602;8.722;2022-12-29T04:11:23;12.00;99.90
4651;DHT22;2338;49.602;8.722;2022-12-29T04:14:09;12.00;99.90
4651;DHT22;2338;49.602;8.722;2022-12-29T04:16:54;12.00;99.90
4651;DHT22;2338;49.602;8.722;2022-12-29T04:19:40;12.10;99.90
4651;DHT22;2338;49.602;8.722;2022-12-29T04:22:26;12.00;99.90
4651;DHT22;2338;49.602;8.722;2022-12-29T04:25:11;12.00;99.90
4651;DHT22;2338;49.602;8.722;2022-12-29T04:27:58;12.10;99.90
4651;DHT22;2338;49.602;8.722;2022-12-29T04:30:45;12.10;99.90
4651;DHT22;2338;49.602;8.722;2022-12-29T04:33:31;12.10;99.90
4651;DHT22;2338;49.602;8.722;2022-12-29T04:36:16;12.20;99.90
4651;DHT22;2338;49.602;8.722;2022-12-29T04:39:02;12.20;99.90
4651;DHT22;2338;49.602;8.722;2022-12-29T04:41:49;12.20;99.90
4651;DHT22;2338;49.602;8.722;2022-12-29T04:44:36;12.20;99.90
4651;DHT22;2338;49.602;8.722;2022-12-29T04:47:21;12.20;99.90
4651;DHT22;2338;49.602;8.722;2022-12-29T04:50:07;12.20;99.90
4651;DHT22;2338;49.602;8.722;2022-12-29T04:52:53;12.20;99.90
4651;DHT22;2338;49.602;8.722;2022-12-29T04:55:38;12.20;99.90
4651;DHT22;2338;49.602;8.722;2022-12-29T04:58:24;12.30;99.90
4651;DHT22;2338;49.602;8.722;2022-12-29T05:01:11;12.30;99.90
4651;DHT22;2338;49.602;8.722;2022-12-29T05:03:57;12.30;99.90
4651;DHT22;2338;49.602;8.722;2022-12-29T05:06:42;12.30;99.90
4651;DHT22;2338;49.602;8.722;2022-12-29T05:09:28;12.30;99.90
4651;DHT22;2338;49.602;8.722;2022-12-29T05:12:14;12.20;99.90
4651;DHT22;2338;49.602;8.722;2022-12-29T05:15:00;12.20;99.90
4651;DHT22;2338;49.602;8.722;2022-12-29T05:17:48;12.30;99.90
4651;DHT22;2338;49.602;8.722;2022-12-29T05:20:34;12.30;99.90
4651;DHT22;2338;49.602;8.722;2022-12-29T05:23:19;12.30;99.90
4651;DHT22;2338;49.602;8.722;2022-12-29T05:26:05;12.30;99.90
4651;DHT22;2338;49.602;8.722;2022-12-29T05:28:51;12.30;99.90
4651;DHT22;2338;49.602;8.722;2022-12-29T05:31:36;12.30;99.90
4651;DHT22;2338;49.602;8.722;2022-12-29T05:34:23;12.30;99.90
4651;DHT22;2338;49.602;8.722;2022-12-29T05:37:09;12.20;99.90
4651;DHT22;2338;49.602;8.722;2022-12-29T05:39:55;12.30;99.90
4651;DHT22;2338;49.602;8.722;2022-12-29T05:42:40;12.20;99.90
4651;DHT22;2338;49.602;8.722;2022-12-29T05:45:26;12.20;99.90
4651;DHT22;2338;49.602;8.722;2022-12-29T05:48:12;12.20;99.90
4651;DHT22;2338;49.602;8.722;2022-12-29T05:50:59;12.20;99.90
4651;DHT22;2338;49.602;8.722;2022-12-29T05:53:44;12.30;99.90
4651;DHT22;2338;49.602;8.722;2022-12-29T05:56:30;12.30;99.90
4651;DHT22;2338;49.602;8.722;2022-12-29T05:59:16;12.30;99.90
4651;DHT22;2338;49.602;8.722;2022-12-29T06:02:02;12.20;99.90
4651;DHT22;2338;49.602;8.722;2022-12-29T06:04:47;12.30;99.90
4651;DHT22;2338;49.602;8.722;2022-12-29T06:07:34;12.30;99.90
4651;DHT22;2338;49.602;8.722;2022-12-29T06:10:20;12.30;99.90
4651;DHT22;2338;49.602;8.722;2022-12-29T06:13:05;12.30;99.90
4651;DHT22;2338;49.602;8.722;2022-12-29T06:15:51;12.30;99.90
4651;DHT22;2338;49.602;8.722;2022-12-29T06:18:36;12.30;99.90
4651;DHT22;2338;49.602;8.722;2022-12-29T06:21:22;12.20;99.90
4651;DHT22;2338;49.602;8.722;2022-12-29T06:24:09;12.30;99.90
4651;DHT22;2338;49.602;8.722;2022-12-29T06:26:58;12.20;99.90
4651;DHT22;2338;49.602;8.722;2022-12-29T06:29:44;12.20;99.90
4651;DHT22;2338;49.602;8.722;2022-12-29T06:32:30;12.20;99.90
4651;DHT22;2338;49.602;8.722;2022-12-29T06:35:16;12.20;99.90
4651;DHT22;2338;49.602;8.722;2022-12-29T06:38:02;12.20;99.90
4651;DHT22;2338;49.602;8.722;2022-12-29T06:40:49;12.20;99.90
4651;DHT22;2338;49.602;8.722;2022-12-29T06:43:34;12.10;99.90
4651;DHT22;2338;49.602;8.722;2022-12-29T06:46:22;12.20;99.90
4651;DHT22;2338;49.602;8.722;2022-12-29T06:49:07;12.20;99.90
4651;DHT22;2338;49.602;8.722;2022-12-29T06:51:53;12.20;99.90
4651;DHT22;2338;49.602;8.722;2022-12-29T06:54:39;12.20;99.90
4651;DHT22;2338;49.602;8.722;2022-12-29T06:57:26;12.20;99.90
4651;DHT22;2338;49.602;8.722;2022-12-29T07:00:13;12.30;99.90
4651;DHT22;2338;49.602;8.722;2022-12-29T07:02:59;12.30;99.90
4651;DHT22;2338;49.602;8.722;2022-12-29T07:05:44;12.30;99.90
4651;DHT22;2338;49.602;8.722;2022-12-29T07:08:30;12.30;99.90
4651;DHT22;2338;49.602;8.722;2022-12-29T07:11:16;12.30;99.90
4651;DHT22;2338;49.602;8.722;2022-12-29T07:14:02;12.40;99.90
4651;DHT22;2338;49.602;8.722;2022-12-29T07:16:48;12.40;99.90
4651;DHT22;2338;49.602;8.722;2022-12-29T07:19:34;12.40;99.90
4651;DHT22;2338;49.602;8.722;2022-12-29T07:22:20;12.40;99.90
4651;DHT22;2338;49.602;8.722;2022-12-29T07:25:06;12.40;99.90
4651;DHT22;2338;49.602;8.722;2022-12-29T07:27:52;12.40;99.90
4651;DHT22;2338;49.602;8.722;2022-12-29T07:30:39;12.40;99.90
4651;DHT22;2338;49.602;8.722;2022-12-29T07:33:27;12.50;99.90
4651;DHT22;2338;49.602;8.722;2022-12-29T07:36:14;12.50;99.90
4651;DHT22;2338;49.602;8.722;2022-12-29T07:39:00;12.50;99.90
4651;DHT22;2338;49.602;8.722;2022-12-29T07:41:45;12.50;99.90
4651;DHT22;2338;49.602;8.722;2022-12-29T07:44:31;12.50;99.90
4651;DHT22;2338;49.602;8.722;2022-12-29T07:47:18;12.60;99.90
4651;DHT22;2338;49.602;8.722;2022-12-29T07:50:05;12.60;99.90
4651;DHT22;2338;49.602;8.722;2022-12-29T07:52:51;12.60;99.90
4651;DHT22;2338;49.602;8.722;2022-12-29T07:55:37;12.60;99.90
4651;DHT22;2338;49.602;8.722;2022-12-29T07:58:22;12.60;99.90
4651;DHT22;2338;49.602;8.722;2022-12-29T08:01:08;12.60;99.90
4651;DHT22;2338;49.602;8.722;2022-12-29T08:03:56;12.60;99.90
4651;DHT22;2338;49.602;8.722;2022-12-29T08:06:42;12.60;99.90
4651;DHT22;2338;49.602;8.722;2022-12-29T08:09:29;12.60;99.90
4651;DHT22;2338;49.602;8.722;2022-12-29T08:12:15;12.70;99.90
4651;DHT22;2338;49.602;8.722;2022-12-29T08:15:01;12.70;99.90
4651;DHT22;2338;49.602;8.722;2022-12-29T08:17:47;12.70;99.90
4651;DHT22;2338;49.602;8.722;2022-12-29T08:20:34;12.70;99.90
4651;DHT22;2338;49.602;8.722;2022-12-29T08:23:19;12.60;99.90
4651;DHT22;2338;49.602;8.722;2022-12-29T08:26:05;12.60;99.90
4651;DHT22;2338;49.602;8.722;2022-12-29T08:28:52;12.60;99.90
4651;DHT22;2338;49.602;8.722;2022-12-29T08:31:38;12.70;99.90
4651;DHT22;2338;49.602;8.722;2022-12-29T08:34:24;12.70;99.90
4651;DHT22;2338;49.602;8.722;2022-12-29T08:37:11;12.70;99.90
4651;DHT22;2338;49.602;8.722;2022-12-29T08:39:57;12.80;99.90
4651;DHT22;2338;49.602;8.722;2022-12-29T08:42:44;12.70;99.90
4651;DHT22;2338;49.602;8.722;2022-12-29T08:45:29;12.80;99.90
4651;DHT22;2338;49.602;8.722;2022-12-29T08:48:15;12.70;99.90
4651;DHT22;2338;49.602;8.722;2022-12-29T08:51:04;12.70;99.90
4651;DHT22;2338;49.602;8.722;2022-12-29T08:53:51;12.80;99.90
4651;DHT22;2338;49.602;8.722;2022-12-29T08:56:37;12.80;99.90
4651;DHT22;2338;49.602;8.722;2022-12-29T08:59:22;12.70;99.90
4651;DHT22;2338;49.602;8.722;2022-12-29T09:02:10;12.70;99.90
4651;DHT22;2338;49.602;8.722;2022-12-29T09:04:56;12.70;99.90
4651;DHT22;2338;49.602;8.722;2022-12-29T09:07:43;12.70;99.90
4651;DHT22;2338;49.602;8.722;2022-12-29T09:10:30;12.80;99.90
4651;DHT22;2338;49.602;8.722;2022-12-29T09:13:16;12.70;99.90
4651;DHT22;2338;49.602;8.722;2022-12-29T09:16:02;12.70;99.90
4651;DHT22;2338;49.602;8.722;2022-12-29T09:18:48;12.70;99.90
4651;DHT22;2338;49.602;8.722;2022-12-29T09:21:34;12.70;99.90
4651;DHT22;2338;49.602;8.722;2022-12-29T09:24:19;12.70;99.90
4651;DHT22;2338;49.602;8.722;2022-12-29T09:27:06;12.70;99.90
4651;DHT22;2338;49.602;8.722;2022-12-29T09:29:52;12.70;99.90
4651;DHT22;2338;49.602;8.722;2022-12-29T09:32:37;12.70;99.90
4651;DHT22;2338;49.602;8.722;2022-12-29T09:35:23;12.70;99.90
4651;DHT22;2338;49.602;8.722;2022-12-29T09:38:08;12.70;99.90
4651;DHT22;2338;49.602;8.722;2022-12-29T09:40:56;12.70;99.90
4651;DHT22;2338;49.602;8.722;2022-12-29T09:44:03;12.70;99.90
4651;DHT22;2338;49.602;8.722;2022-12-29T09:46:52;12.80;99.90
4651;DHT22;2338;49.602;8.722;2022-12-29T09:49:43;12.80;99.90
4651;DHT22;2338;49.602;8.722;2022-12-29T09:52:32;12.70;99.90
4651;DHT22;2338;49.602;8.722;2022-12-29T09:55:22;12.70;99.90
4651;DHT22;2338;49.602;8.722;2022-12-29T09:58:13;12.70;99.90
4651;DHT22;2338;49.602;8.722;2022-12-29T10:01:04;12.70;99.90
4651;DHT22;2338;49.602;8.722;2022-12-29T10:03:51;12.80;99.90
4651;DHT22;2338;49.602;8.722;2022-12-29T10:06:41;12.80;99.90
4651;DHT22;2338;49.602;8.722;2022-12-29T10:09:33;12.80;99.90
4651;DHT22;2338;49.602;8.722;2022-12-29T10:12:29;12.90;99.90
4651;DHT22;2338;49.602;8.722;2022-12-29T10:15:30;12.80;99.90
4651;DHT22;2338;49.602;8.722;2022-12-29T10:18:32;12.90;99.90
4651;DHT22;2338;49.602;8.722;2022-12-29T10:21:30;13.00;99.90
4651;DHT22;2338;49.602;8.722;2022-12-29T10:24:20;13.00;99.90
4651;DHT22;2338;49.602;8.722;2022-12-29T10:27:10;13.00;99.90
4651;DHT22;2338;49.602;8.722;2022-12-29T10:29:58;13.00;99.90
4651;DHT22;2338;49.602;8.722;2022-12-29T10:32:49;13.00;99.90
4651;DHT22;2338;49.602;8.722;2022-12-29T10:35:39;12.90;99.90
4651;DHT22;2338;49.602;8.722;2022-12-29T10:38:30;12.90;99.90
4651;DHT22;2338;49.602;8.722;2022-12-29T10:41:23;12.90;99.90
4651;DHT22;2338;49.602;8.722;2022-12-29T10:44:14;12.90;99.90
4651;DHT22;2338;49.602;8.722;2022-12-29T10:47:05;12.90;99.90
4651;DHT22;2338;49.602;8.722;2022-12-29T10:49:53;12.90;99.90
4651;DHT22;2338;49.602;8.722;2022-12-29T10:52:41;12.90;99.90
4651;DHT22;2338;49.602;8.722;2022-12-29T10:55:29;12.90;99.90
4651;DHT22;2338;49.602;8.722;2022-12-29T10:58:16;13.00;99.90
4651;DHT22;2338;49.602;8.722;2022-12-29T11:01:03;12.90;99.90
4651;DHT22;2338;49.602;8.722;2022-12-29T11:03:56;12.90;99.90
4651;DHT22;2338;49.602;8.722;2022-12-29T11:06:44;13.00;99.90
4651;DHT22;2338;49.602;8.722;2022-12-29T11:09:34;13.00;99.90
4651;DHT22;2338;49.602;8.722;2022-12-29T11:12:24;13.00;99.90
4651;DHT22;2338;49.602;8.722;2022-12-29T11:15:14;13.10;99.90
4651;DHT22;2338;49.602;8.722;2022-12-29T11:18:00;13.00;99.90
4651;DHT22;2338;49.602;8.722;2022-12-29T11:20:47;13.10;99.90
4651;DHT22;2338;49.602;8.722;2022-12-29T11:23:35;13.00;99.90
4651;DHT22;2338;49.602;8.722;2022-12-29T11:26:24;13.00;99.90
4651;DHT22;2338;49.602;8.722;2022-12-29T11:29:36;13.00;99.90
4651;DHT22;2338;49.602;8.722;2022-12-29T11:32:24;13.00;99.90
4651;DHT22;2338;49.602;8.722;2022-12-29T11:35:30;13.00;99.90
4651;DHT22;2338;49.602;8.722;2022-12-29T11:38:21;12.90;99.90
4651;DHT22;2338;49.602;8.722;2022-12-29T11:41:12;12.90;99.90
4651;DHT22;2338;49.602;8.722;2022-12-29T11:44:02;12.80;99.90
4651;DHT22;2338;49.602;8.722;2022-12-29T11:46:51;12.70;99.90
4651;DHT22;2338;49.602;8.722;2022-12-29T11:49:38;12.70;99.90
4651;DHT22;2338;49.602;8.722;2022-12-29T11:52:26;12.60;99.90
4651;DHT22;2338;49.602;8.722;2022-12-29T11:55:18;12.60;99.90
4651;DHT22;2338;49.602;8.722;2022-12-29T11:58:05;12.50;99.90
4651;DHT22;2338;49.602;8.722;2022-12-29T12:00:52;12.50;99.90
4651;DHT22;2338;49.602;8.722;2022-12-29T12:03:42;12.50;99.90
4651;DHT22;2338;49.602;8.722;2022-12-29T12:06:33;12.40;99.90
4651;DHT22;2338;49.602;8.722;2022-12-29T12:09:25;12.50;99.90
4651;DHT22;2338;49.602;8.722;2022-12-29T12:12:22;12.50;99.90
4651;DHT22;2338;49.602;8.722;2022-12-29T12:15:16;12.40;99.90
4651;DHT22;2338;49.602;8.722;2022-12-29T12:18:09;12.40;99.90
4651;DHT22;2338;49.602;8.722;2022-12-29T12:21:00;12.40;99.90
4651;DHT22;2338;49.602;8.722;2022-12-29T12:27:02;12.50;99.90
4651;DHT22;2338;49.602;8.722;2022-12-29T12:29:59;12.50;99.90
4651;DHT22;2338;49.602;8.722;2022-12-29T12:32:50;12.60;99.90
4651;DHT22;2338;49.602;8.722;2022-12-29T12:35:43;12.60;99.90
4651;DHT22;2338;49.602;8.722;2022-12-29T12:38:36;12.70;99.90
4651;DHT22;2338;49.602;8.722;2022-12-29T12:41:33;12.80;99.90
4651;DHT22;2338;49.602;8.722;2022-12-29T12:44:28;12.90;99.90
4651;DHT22;2338;49.602;8.722;2022-12-29T12:47:39;13.00;99.90
4651;DHT22;2338;49.602;8.722;2022-12-29T12:50:40;13.00;99.90
4651;DHT22;2338;49.602;8.722;2022-12-29T12:54:23;13.00;99.90
4651;DHT22;2338;49.602;8.722;2022-12-29T12:57:17;13.00;99.90
4651;DHT22;2338;49.602;8.722;2022-12-29T13:00:11;13.00;99.90
4651;DHT22;2338;49.602;8.722;2022-12-29T13:03:08;13.00;99.90
4651;DHT22;2338;49.602;8.722;2022-12-29T13:06:09;12.90;99.90
4651;DHT22;2338;49.602;8.722;2022-12-29T13:09:16;13.00;99.90
4651;DHT22;2338;49.602;8.722;2022-12-29T13:12:16;12.90;99.90
4651;DHT22;2338;49.602;8.722;2022-12-29T13:15:15;12.90;99.90
4651;DHT22;2338;49.602;8.722;2022-12-29T13:18:10;12.80;99.90
4651;DHT22;2338;49.602;8.722;2022-12-29T13:21:07;12.80;99.90
4651;DHT22;2338;49.602;8.722;2022-12-29T13:23:59;12.80;99.90
4651;DHT22;2338;49.602;8.722;2022-12-29T13:26:52;12.90;99.90
4651;DHT22;2338;49.602;8.722;2022-12-29T13:29:46;12.80;99.90
4651;DHT22;2338;49.602;8.722;2022-12-29T13:32:44;12.80;99.90
4651;DHT22;2338;49.602;8.722;2022-12-29T13:35:48;12.70;99.90
4651;DHT22;2338;49.602;8.722;2022-12-29T13:38:40;12.70;99.90
4651;DHT22;2338;49.602;8.722;2022-12-29T13:41:30;12.70;99.90
4651;DHT22;2338;49.602;8.722;2022-12-29T13:44:23;12.70;99.90
4651;DHT22;2338;49.602;8.722;2022-12-29T13:47:18;12.70;99.90
4651;DHT22;2338;49.602;8.722;2022-12-29T13:50:13;12.60;99.90
4651;DHT22;2338;49.602;8.722;2022-12-29T13:53:03;12.60;99.90
4651;DHT22;2338;49.602;8.722;2022-12-29T13:55:57;12.60;99.90
4651;DHT22;2338;49.602;8.722;2022-12-29T13:58:47;12.60;99.90
4651;DHT22;2338;49.602;8.722;2022-12-29T14:01:41;12.60;99.90
4651;DHT22;2338;49.602;8.722;2022-12-29T14:04:30;12.60;99.90
4651;DHT22;2338;49.602;8.722;2022-12-29T14:07:19;12.50;99.90
4651;DHT22;2338;49.602;8.722;2022-12-29T14:10:05;12.50;99.90
4651;DHT22;2338;49.602;8.722;2022-12-29T14:12:59;12.40;99.90
4651;DHT22;2338;49.602;8.722;2022-12-29T14:15:51;12.40;99.90
4651;DHT22;2338;49.602;8.722;2022-12-29T14:18:43;12.30;99.90
4651;DHT22;2338;49.602;8.722;2022-12-29T14:21:29;12.30;99.90
4651;DHT22;2338;49.602;8.722;2022-12-29T14:24:39;12.30;99.90
4651;DHT22;2338;49.602;8.722;2022-12-29T14:27:58;12.30;99.90
4651;DHT22;2338;49.602;8.722;2022-12-29T14:30:53;12.20;99.90
4651;DHT22;2338;49.602;8.722;2022-12-29T14:33:40;12.20;99.90
4651;DHT22;2338;49.602;8.722;2022-12-29T14:36:35;12.10;99.90
4651;DHT22;2338;49.602;8.722;2022-12-29T14:39:42;12.10;99.90
4651;DHT22;2338;49.602;8.722;2022-12-29T14:42:29;12.00;99.90
4651;DHT22;2338;49.602;8.722;2022-12-29T14:45:27;11.90;99.90
4651;DHT22;2338;49.602;8.722;2022-12-29T14:48:36;11.70;99.90
4651;DHT22;2338;49.602;8.722;2022-12-29T14:51:31;11.60;99.90
4651;DHT22;2338;49.602;8.722;2022-12-29T14:54:45;11.50;99.90
4651;DHT22;2338;49.602;8.722;2022-12-29T14:57:35;11.40;99.90
4651;DHT22;2338;49.602;8.722;2022-12-29T15:00:24;11.30;99.90
4651;DHT22;2338;49.602;8.722;2022-12-29T15:03:17;11.20;99.90
4651;DHT22;2338;49.602;8.722;2022-12-29T15:06:05;11.20;99.90
4651;DHT22;2338;49.602;8.722;2022-12-29T15:09:00;11.20;99.90
4651;DHT22;2338;49.602;8.722;2022-12-29T15:11:50;11.20;99.90
4651;DHT22;2338;49.602;8.722;2022-12-29T15:14:38;11.10;99.90
4651;DHT22;2338;49.602;8.722;2022-12-29T15:17:26;11.20;99.90
4651;DHT22;2338;49.602;8.722;2022-12-29T15:20:22;11.20;99.90
4651;DHT22;2338;49.602;8.722;2022-12-29T15:23:10;11.20;99.90
4651;DHT22;2338;49.602;8.722;2022-12-29T15:26:02;11.10;99.90
4651;DHT22;2338;49.602;8.722;2022-12-29T15:28:50;11.00;99.90
4651;DHT22;2338;49.602;8.722;2022-12-29T15:31:46;11.00;99.90
4651;DHT22;2338;49.602;8.722;2022-12-29T15:34:32;11.00;99.90
4651;DHT22;2338;49.602;8.722;2022-12-29T15:37:20;10.90;99.90
4651;DHT22;2338;49.602;8.722;2022-12-29T15:40:21;10.80;99.90
4651;DHT22;2338;49.602;8.722;2022-12-29T15:43:31;10.80;99.90
4651;DHT22;2338;49.602;8.722;2022-12-29T15:46:21;10.70;99.90
4651;DHT22;2338;49.602;8.722;2022-12-29T15:49:08;10.70;99.90
4651;DHT22;2338;49.602;8.722;2022-12-29T15:51:54;10.60;99.90
4651;DHT22;2338;49.602;8.722;2022-12-29T15:54:42;10.40;99.90
4651;DHT22;2338;49.602;8.722;2022-12-29T15:57:30;10.30;99.90
4651;DHT22;2338;49.602;8.722;2022-12-29T16:00:26;10.10;99.90
4651;DHT22;2338;49.602;8.722;2022-12-29T16:03:13;10.00;99.90
4651;DHT22;2338;49.602;8.722;2022-12-29T16:06:08;9.90;99.90
4651;DHT22;2338;49.602;8.722;2022-12-29T16:08:59;10.00;99.90
4651;DHT22;2338;49.602;8.722;2022-12-29T16:11:49;9.90;99.90
4651;DHT22;2338;49.602;8.722;2022-12-29T16:14:40;9.90;99.90
4651;DHT22;2338;49.602;8.722;2022-12-29T16:17:30;9.90;99.90
4651;DHT22;2338;49.602;8.722;2022-12-29T16:20:18;9.90;99.90
4651;DHT22;2338;49.602;8.722;2022-12-29T16:23:04;9.90;99.90
4651;DHT22;2338;49.602;8.722;2022-12-29T16:25:51;9.90;99.90
4651;DHT22;2338;49.602;8.722;2022-12-29T16:28:40;10.00;99.90
4651;DHT22;2338;49.602;8.722;2022-12-29T16:31:34;10.00;99.90
4651;DHT22;2338;49.602;8.722;2022-12-29T16:34:26;10.20;99.90
4651;DHT22;2338;49.602;8.722;2022-12-29T16:37:28;10.10;99.90
4651;DHT22;2338;49.602;8.722;2022-12-29T16:40:28;10.20;99.90
4651;DHT22;2338;49.602;8.722;2022-12-29T16:43:21;10.20;99.90
4651;DHT22;2338;49.602;8.722;2022-12-29T16:46:21;10.20;99.90
4651;DHT22;2338;49.602;8.722;2022-12-29T16:49:14;10.30;99.90
4651;DHT22;2338;49.602;8.722;2022-12-29T16:52:11;10.30;99.90
4651;DHT22;2338;49.602;8.722;2022-12-29T16:54:59;10.40;99.90
4651;DHT22;2338;49.602;8.722;2022-12-29T16:57:47;10.40;99.90
4651;DHT22;2338;49.602;8.722;2022-12-29T17:00:35;10.40;99.90
4651;DHT22;2338;49.602;8.722;2022-12-29T17:03:21;10.50;99.90
4651;DHT22;2338;49.602;8.722;2022-12-29T17:06:10;10.50;99.90
4651;DHT22;2338;49.602;8.722;2022-12-29T17:09:00;10.50;99.90
4651;DHT22;2338;49.602;8.722;2022-12-29T17:11:48;10.50;99.90
4651;DHT22;2338;49.602;8.722;2022-12-29T17:14:43;10.40;99.90
4651;DHT22;2338;49.602;8.722;2022-12-29T17:17:33;10.40;99.90
4651;DHT22;2338;49.602;8.722;2022-12-29T17:20:20;10.50;99.90
4651;DHT22;2338;49.602;8.722;2022-12-29T17:23:14;10.50;99.90
4651;DHT22;2338;49.602;8.722;2022-12-29T17:26:01;10.60;99.90
4651;DHT22;2338;49.602;8.722;2022-12-29T17:28:47;10.60;99.90
4651;DHT22;2338;49.602;8.722;2022-12-29T17:31:33;10.60;99.90
4651;DHT22;2338;49.602;8.722;2022-12-29T17:34:19;10.60;99.90
4651;DHT22;2338;49.602;8.722;2022-12-29T17:37:17;10.60;99.90
4651;DHT22;2338;49.602;8.722;2022-12-29T17:40:11;10.60;99.90
4651;DHT22;2338;49.602;8.722;2022-12-29T17:42:59;10.60;99.90
4651;DHT22;2338;49.602;8.722;2022-12-29T17:45:48;10.60;99.90
4651;DHT22;2338;49.602;8.722;2022-12-29T17:48:35;10.50;99.90
4651;DHT22;2338;49.602;8.722;2022-12-29T17:51:21;10.60;99.90
4651;DHT22;2338;49.602;8.722;2022-12-29T17:54:14;10.50;99.90
4651;DHT22;2338;49.602;8.722;2022-12-29T17:57:02;10.60;99.90
4651;DHT22;2338;49.602;8.722;2022-12-29T17:59:49;10.60;99.90
4651;DHT22;2338;49.602;8.722;2022-12-29T18:02:35;10.60;99.90
4651;DHT22;2338;49.602;8.722;2022-12-29T18:05:23;10.50;99.90
4651;DHT22;2338;49.602;8.722;2022-12-29T18:08:10;10.60;99.90
4651;DHT22;2338;49.602;8.722;2022-12-29T18:10:56;10.60;99.90
4651;DHT22;2338;49.602;8.722;2022-12-29T18:13:42;10.70;99.90
4651;DHT22;2338;49.602;8.722;2022-12-29T18:16:29;10.70;99.90
4651;DHT22;2338;49.602;8.722;2022-12-29T18:19:15;10.70;99.90
4651;DHT22;2338;49.602;8.722;2022-12-29T18:22:00;10.80;99.90
4651;DHT22;2338;49.602;8.722;2022-12-29T18:24:46;10.80;99.90
4651;DHT22;2338;49.602;8.722;2022-12-29T18:27:32;10.80;99.90
4651;DHT22;2338;49.602;8.722;2022-12-29T18:30:18;10.80;99.90
4651;DHT22;2338;49.602;8.722;2022-12-29T18:33:05;10.70;99.90
4651;DHT22;2338;49.602;8.722;2022-12-29T18:35:52;10.80;99.90